sensor_id;sensor_type;location;lat;lon;timestamp;P1;durP1;ratioP1;P2;durP2;ratioP2
76852;SDS011;65825;52.232;10.566;2024-01-07T00:00:57;13.77;;;5.83;;
76852;SDS011;65825;52.232;10.566;2024-01-07T00:03:22;14.83;;;5.87;;
76852;SDS011;65825;52.232;10.566;2024-01-07T00:05:47;12.30;;;6.13;;
76852;SDS011;65825;52.232;10.566;2024-01-07T00:08:12;12.57;;;5.27;;
76852;SDS011;65825;52.232;10.566;2024-01-07T00:10:37;12.13;;;5.70;;
76852;SDS011;65825;52.232;10.566;2024-01-07T00:13:03;9.40;;;4.77;;
76852;SDS011;65825;52.232;10.566;2024-01-07T00:15:28;9.88;;;5.53;;
76852;SDS011;65825;52.232;10.566;2024-01-07T00:17:53;10.87;;;5.97;;
76852;SDS011;65825;52.232;10.566;2024-01-07T00:20:19;12.80;;;5.60;;
76852;SDS011;65825;52.232;10.566;2024-01-07T00:22:44;11.50;;;5.50;;
76852;SDS011;65825;52.232;10.566;2024-01-07T00:25:09;11.87;;;5.77;;
76852;SDS011;65825;52.232;10.566;2024-01-07T00:27:34;12.73;;;6.13;;
76852;SDS011;65825;52.232;10.566;2024-01-07T00:30:00;12.33;;;5.37;;
76852;SDS011;65825;52.232;10.566;2024-01-07T00:32:25;14.97;;;6.43;;
76852;SDS011;65825;52.232;10.566;2024-01-07T00:34:51;16.00;;;6.90;;
76852;SDS011;65825;52.232;10.566;2024-01-07T00:37:16;12.13;;;5.33;;
76852;SDS011;65825;52.232;10.566;2024-01-07T00:39:42;11.50;;;5.47;;
76852;SDS011;65825;52.232;10.566;2024-01-07T00:42:09;12.18;;;5.40;;
76852;SDS011;65825;52.232;10.566;2024-01-07T00:44:34;11.43;;;5.20;;
76852;SDS011;65825;52.232;10.566;2024-01-07T00:46:59;11.57;;;5.97;;
76852;SDS011;65825;52.232;10.566;2024-01-07T00:49:24;11.43;;;4.90;;
76852;SDS011;65825;52.232;10.566;2024-01-07T00:51:50;9.37;;;4.53;;
76852;SDS011;65825;52.232;10.566;2024-01-07T00:54:15;12.10;;;5.20;;
76852;SDS011;65825;52.232;10.566;2024-01-07T00:56:40;13.50;;;5.70;;
76852;SDS011;65825;52.232;10.566;2024-01-07T00:59:05;9.90;;;5.30;;
76852;SDS011;65825;52.232;10.566;2024-01-07T01:01:31;13.47;;;4.83;;
76852;SDS011;65825;52.232;10.566;2024-01-07T01:03:56;10.68;;;4.65;;
76852;SDS011;65825;52.232;10.566;2024-01-07T01:06:23;12.95;;;5.72;;
76852;SDS011;65825;52.232;10.566;2024-01-07T01:08:48;9.07;;;4.90;;
76852;SDS011;65825;52.232;10.566;2024-01-07T01:11:13;8.93;;;4.87;;
76852;SDS011;65825;52.232;10.566;2024-01-07T01:13:39;8.48;;;4.35;;
76852;SDS011;65825;52.232;10.566;2024-01-07T01:16:04;10.00;;;4.37;;
76852;SDS011;65825;52.232;10.566;2024-01-07T01:18:29;8.65;;;4.38;;
76852;SDS011;65825;52.232;10.566;2024-01-07T01:20:55;12.07;;;5.17;;
76852;SDS011;65825;52.232;10.566;2024-01-07T01:23:21;7.05;;;4.05;;
76852;SDS011;65825;52.232;10.566;2024-01-07T01:25:46;8.77;;;4.13;;
76852;SDS011;65825;52.232;10.566;2024-01-07T01:28:11;7.87;;;4.33;;
76852;SDS011;65825;52.232;10.566;2024-01-07T01:30:36;7.33;;;3.70;;
76852;SDS011;65825;52.232;10.566;2024-01-07T01:33:02;8.57;;;3.23;;
76852;SDS011;65825;52.232;10.566;2024-01-07T01:35:27;8.38;;;4.28;;
76852;SDS011;65825;52.232;10.566;2024-01-07T01:37:53;8.17;;;4.27;;
76852;SDS011;65825;52.232;10.566;2024-01-07T01:40:19;7.20;;;3.78;;
76852;SDS011;65825;52.232;10.566;2024-01-07T01:42:45;7.70;;;4.25;;
76852;SDS011;65825;52.232;10.566;2024-01-07T01:45:10;8.85;;;3.70;;
76852;SDS011;65825;52.232;10.566;2024-01-07T01:47:35;8.13;;;3.17;;
76852;SDS011;65825;52.232;10.566;2024-01-07T01:50:01;8.47;;;3.83;;
76852;SDS011;65825;52.232;10.566;2024-01-07T01:52:27;8.82;;;4.18;;
76852;SDS011;65825;52.232;10.566;2024-01-07T01:54:52;8.57;;;3.83;;
76852;SDS011;65825;52.232;10.566;2024-01-07T01:57:19;8.15;;;3.83;;
76852;SDS011;65825;52.232;10.566;2024-01-07T01:59:48;9.90;;;4.00;;
76852;SDS011;65825;52.232;10.566;2024-01-07T02:02:13;7.00;;;3.35;;
76852;SDS011;65825;52.232;10.566;2024-01-07T02:04:39;10.83;;;4.03;;
76852;SDS011;65825;52.232;10.566;2024-01-07T02:07:04;9.77;;;4.47;;
76852;SDS011;65825;52.232;10.566;2024-01-07T02:09:29;8.20;;;3.43;;
76852;SDS011;65825;52.232;10.566;2024-01-07T02:12:01;7.50;;;3.70;;
76852;SDS011;65825;52.232;10.566;2024-01-07T02:14:27;7.25;;;3.28;;
76852;SDS011;65825;52.232;10.566;2024-01-07T02:16:53;8.60;;;3.83;;
76852;SDS011;65825;52.232;10.566;2024-01-07T02:19:18;7.93;;;3.53;;
76852;SDS011;65825;52.232;10.566;2024-01-07T02:21:45;6.75;;;3.30;;
76852;SDS011;65825;52.232;10.566;2024-01-07T02:24:15;8.07;;;3.87;;
76852;SDS011;65825;52.232;10.566;2024-01-07T02:26:40;7.90;;;3.80;;
76852;SDS011;65825;52.232;10.566;2024-01-07T02:29:06;9.63;;;4.20;;
76852;SDS011;65825;52.232;10.566;2024-01-07T02:31:31;7.23;;;4.00;;
76852;SDS011;65825;52.232;10.566;2024-01-07T02:33:56;9.27;;;4.23;;
76852;SDS011;65825;52.232;10.566;2024-01-07T02:36:21;7.07;;;3.73;;
76852;SDS011;65825;52.232;10.566;2024-01-07T02:38:47;7.63;;;3.80;;
76852;SDS011;65825;52.232;10.566;2024-01-07T02:41:12;5.87;;;3.03;;
76852;SDS011;65825;52.232;10.566;2024-01-07T02:43:37;7.63;;;4.33;;
76852;SDS011;65825;52.232;10.566;2024-01-07T02:46:03;8.43;;;4.20;;
76852;SDS011;65825;52.232;10.566;2024-01-07T02:48:28;6.80;;;3.70;;
76852;SDS011;65825;52.232;10.566;2024-01-07T02:50:54;7.93;;;3.43;;
76852;SDS011;65825;52.232;10.566;2024-01-07T02:53:19;6.37;;;3.07;;
76852;SDS011;65825;52.232;10.566;2024-01-07T02:55:44;6.70;;;3.50;;
76852;SDS011;65825;52.232;10.566;2024-01-07T02:58:09;7.70;;;3.07;;
76852;SDS011;65825;52.232;10.566;2024-01-07T03:00:35;6.93;;;3.03;;
76852;SDS011;65825;52.232;10.566;2024-01-07T03:03:00;6.53;;;2.80;;
76852;SDS011;65825;52.232;10.566;2024-01-07T03:05:25;5.03;;;3.10;;
76852;SDS011;65825;52.232;10.566;2024-01-07T03:07:52;7.85;;;3.15;;
76852;SDS011;65825;52.232;10.566;2024-01-07T03:10:17;6.53;;;3.30;;
76852;SDS011;65825;52.232;10.566;2024-01-07T03:12:43;6.07;;;3.17;;
76852;SDS011;65825;52.232;10.566;2024-01-07T03:15:08;6.43;;;3.40;;
76852;SDS011;65825;52.232;10.566;2024-01-07T03:17:33;6.20;;;2.90;;
76852;SDS011;65825;52.232;10.566;2024-01-07T03:19:59;7.23;;;3.50;;
76852;SDS011;65825;52.232;10.566;2024-01-07T03:22:24;5.73;;;2.73;;
76852;SDS011;65825;52.232;10.566;2024-01-07T03:24:49;7.00;;;3.35;;
76852;SDS011;65825;52.232;10.566;2024-01-07T03:27:15;9.20;;;3.43;;
76852;SDS011;65825;52.232;10.566;2024-01-07T03:29:40;10.63;;;2.90;;
76852;SDS011;65825;52.232;10.566;2024-01-07T03:32:06;9.55;;;3.42;;
76852;SDS011;65825;52.232;10.566;2024-01-07T03:34:31;5.68;;;3.17;;
76852;SDS011;65825;52.232;10.566;2024-01-07T03:36:57;8.07;;;3.20;;
76852;SDS011;65825;52.232;10.566;2024-01-07T03:39:22;4.93;;;2.92;;
76852;SDS011;65825;52.232;10.566;2024-01-07T03:41:47;4.63;;;2.70;;
76852;SDS011;65825;52.232;10.566;2024-01-07T03:44:13;4.67;;;2.50;;
76852;SDS011;65825;52.232;10.566;2024-01-07T03:46:38;4.63;;;2.07;;
76852;SDS011;65825;52.232;10.566;2024-01-07T03:49:03;3.30;;;1.97;;
76852;SDS011;65825;52.232;10.566;2024-01-07T03:51:28;3.87;;;2.00;;
76852;SDS011;65825;52.232;10.566;2024-01-07T03:53:54;3.70;;;1.97;;
76852;SDS011;65825;52.232;10.566;2024-01-07T03:56:19;4.80;;;2.20;;
76852;SDS011;65825;52.232;10.566;2024-01-07T03:58:44;4.00;;;2.13;;
76852;SDS011;65825;52.232;10.566;2024-01-07T04:01:09;5.00;;;1.83;;
76852;SDS011;65825;52.232;10.566;2024-01-07T04:03:35;3.10;;;1.53;;
76852;SDS011;65825;52.232;10.566;2024-01-07T04:06:00;3.23;;;1.90;;
76852;SDS011;65825;52.232;10.566;2024-01-07T04:08:25;2.80;;;1.73;;
76852;SDS011;65825;52.232;10.566;2024-01-07T04:10:51;2.37;;;1.37;;
76852;SDS011;65825;52.232;10.566;2024-01-07T04:13:16;3.70;;;1.80;;
76852;SDS011;65825;52.232;10.566;2024-01-07T04:15:41;4.00;;;1.70;;
76852;SDS011;65825;52.232;10.566;2024-01-07T04:18:06;3.03;;;1.80;;
76852;SDS011;65825;52.232;10.566;2024-01-07T04:20:32;3.57;;;1.47;;
76852;SDS011;65825;52.232;10.566;2024-01-07T04:22:57;4.47;;;1.90;;
76852;SDS011;65825;52.232;10.566;2024-01-07T04:25:23;2.35;;;1.60;;
76852;SDS011;65825;52.232;10.566;2024-01-07T04:27:48;3.08;;;1.40;;
76852;SDS011;65825;52.232;10.566;2024-01-07T04:30:14;3.47;;;1.57;;
76852;SDS011;65825;52.232;10.566;2024-01-07T04:32:39;2.93;;;1.53;;
76852;SDS011;65825;52.232;10.566;2024-01-07T04:35:04;4.60;;;1.57;;
76852;SDS011;65825;52.232;10.566;2024-01-07T04:37:31;3.70;;;1.50;;
76852;SDS011;65825;52.232;10.566;2024-01-07T04:39:56;3.60;;;1.90;;
76852;SDS011;65825;52.232;10.566;2024-01-07T04:42:21;4.97;;;1.80;;
76852;SDS011;65825;52.232;10.566;2024-01-07T04:44:46;3.70;;;1.70;;
76852;SDS011;65825;52.232;10.566;2024-01-07T04:47:28;3.67;;;1.40;;
76852;SDS011;65825;52.232;10.566;2024-01-07T04:49:59;2.92;;;1.27;;
76852;SDS011;65825;52.232;10.566;2024-01-07T04:52:24;2.58;;;1.70;;
76852;SDS011;65825;52.232;10.566;2024-01-07T04:54:50;2.17;;;1.75;;
76852;SDS011;65825;52.232;10.566;2024-01-07T04:57:16;3.22;;;1.55;;
76852;SDS011;65825;52.232;10.566;2024-01-07T04:59:41;3.30;;;1.67;;
76852;SDS011;65825;52.232;10.566;2024-01-07T05:02:07;5.27;;;1.60;;
76852;SDS011;65825;52.232;10.566;2024-01-07T05:04:32;2.53;;;1.13;;
76852;SDS011;65825;52.232;10.566;2024-01-07T05:06:57;2.67;;;1.30;;
76852;SDS011;65825;52.232;10.566;2024-01-07T05:09:22;4.07;;;1.80;;
76852;SDS011;65825;52.232;10.566;2024-01-07T05:11:48;2.43;;;1.73;;
76852;SDS011;65825;52.232;10.566;2024-01-07T05:14:13;4.50;;;1.57;;
76852;SDS011;65825;52.232;10.566;2024-01-07T05:16:38;4.18;;;1.52;;
76852;SDS011;65825;52.232;10.566;2024-01-07T05:19:04;3.17;;;1.75;;
76852;SDS011;65825;52.232;10.566;2024-01-07T05:21:29;3.40;;;2.17;;
76852;SDS011;65825;52.232;10.566;2024-01-07T05:23:54;2.30;;;1.43;;
76852;SDS011;65825;52.232;10.566;2024-01-07T05:26:20;2.70;;;1.67;;
76852;SDS011;65825;52.232;10.566;2024-01-07T05:28:46;3.70;;;1.90;;
76852;SDS011;65825;52.232;10.566;2024-01-07T05:31:15;3.27;;;1.67;;
76852;SDS011;65825;52.232;10.566;2024-01-07T05:33:41;4.40;;;1.65;;
76852;SDS011;65825;52.232;10.566;2024-01-07T05:36:07;3.47;;;1.48;;
76852;SDS011;65825;52.232;10.566;2024-01-07T05:38:32;4.33;;;1.93;;
76852;SDS011;65825;52.232;10.566;2024-01-07T05:40:57;4.23;;;1.70;;
76852;SDS011;65825;52.232;10.566;2024-01-07T05:43:22;4.33;;;2.33;;
76852;SDS011;65825;52.232;10.566;2024-01-07T05:45:48;3.77;;;2.27;;
76852;SDS011;65825;52.232;10.566;2024-01-07T05:48:13;4.97;;;2.20;;
76852;SDS011;65825;52.232;10.566;2024-01-07T05:50:38;3.13;;;2.03;;
76852;SDS011;65825;52.232;10.566;2024-01-07T05:53:03;6.07;;;2.20;;
76852;SDS011;65825;52.232;10.566;2024-01-07T05:55:29;4.63;;;2.20;;
76852;SDS011;65825;52.232;10.566;2024-01-07T05:57:54;3.80;;;2.07;;
76852;SDS011;65825;52.232;10.566;2024-01-07T06:00:19;4.37;;;2.23;;
76852;SDS011;65825;52.232;10.566;2024-01-07T06:02:45;5.77;;;2.20;;
76852;SDS011;65825;52.232;10.566;2024-01-07T06:05:10;3.47;;;2.00;;
76852;SDS011;65825;52.232;10.566;2024-01-07T06:07:35;5.37;;;2.23;;
76852;SDS011;65825;52.232;10.566;2024-01-07T06:10:00;6.73;;;1.90;;
76852;SDS011;65825;52.232;10.566;2024-01-07T06:12:26;2.87;;;1.83;;
76852;SDS011;65825;52.232;10.566;2024-01-07T06:14:51;3.70;;;1.80;;
76852;SDS011;65825;52.232;10.566;2024-01-07T06:17:16;5.77;;;1.97;;
76852;SDS011;65825;52.232;10.566;2024-01-07T06:19:41;5.00;;;2.50;;
76852;SDS011;65825;52.232;10.566;2024-01-07T06:22:07;4.70;;;2.40;;
76852;SDS011;65825;52.232;10.566;2024-01-07T06:24:32;2.37;;;1.50;;
76852;SDS011;65825;52.232;10.566;2024-01-07T06:26:57;3.33;;;2.00;;
76852;SDS011;65825;52.232;10.566;2024-01-07T06:29:22;3.77;;;1.93;;
76852;SDS011;65825;52.232;10.566;2024-01-07T06:31:48;3.43;;;1.90;;
76852;SDS011;65825;52.232;10.566;2024-01-07T06:34:14;5.22;;;1.83;;
76852;SDS011;65825;52.232;10.566;2024-01-07T06:36:40;4.10;;;2.05;;
76852;SDS011;65825;52.232;10.566;2024-01-07T06:39:06;5.00;;;2.08;;
76852;SDS011;65825;52.232;10.566;2024-01-07T06:41:32;7.57;;;2.13;;
76852;SDS011;65825;52.232;10.566;2024-01-07T06:43:58;4.50;;;2.08;;
76852;SDS011;65825;52.232;10.566;2024-01-07T06:46:23;4.83;;;2.10;;
76852;SDS011;65825;52.232;10.566;2024-01-07T06:48:48;3.17;;;2.10;;
76852;SDS011;65825;52.232;10.566;2024-01-07T06:51:14;3.57;;;2.10;;
76852;SDS011;65825;52.232;10.566;2024-01-07T06:53:40;4.53;;;2.33;;
76852;SDS011;65825;52.232;10.566;2024-01-07T06:56:05;3.72;;;1.88;;
76852;SDS011;65825;52.232;10.566;2024-01-07T06:58:30;3.83;;;2.53;;
76852;SDS011;65825;52.232;10.566;2024-01-07T07:00:57;4.35;;;2.10;;
76852;SDS011;65825;52.232;10.566;2024-01-07T07:03:22;3.87;;;2.30;;
76852;SDS011;65825;52.232;10.566;2024-01-07T07:05:47;5.70;;;2.83;;
76852;SDS011;65825;52.232;10.566;2024-01-07T07:08:13;4.27;;;2.13;;
76852;SDS011;65825;52.232;10.566;2024-01-07T07:10:38;3.67;;;2.10;;
76852;SDS011;65825;52.232;10.566;2024-01-07T07:13:03;5.03;;;2.20;;
76852;SDS011;65825;52.232;10.566;2024-01-07T07:15:29;7.53;;;2.60;;
76852;SDS011;65825;52.232;10.566;2024-01-07T07:17:54;3.53;;;2.10;;
76852;SDS011;65825;52.232;10.566;2024-01-07T07:20:20;3.47;;;2.15;;
76852;SDS011;65825;52.232;10.566;2024-01-07T07:22:45;5.43;;;2.47;;
76852;SDS011;65825;52.232;10.566;2024-01-07T07:25:11;4.77;;;2.27;;
76852;SDS011;65825;52.232;10.566;2024-01-07T07:27:36;5.03;;;2.30;;
76852;SDS011;65825;52.232;10.566;2024-01-07T07:30:02;4.82;;;2.47;;
76852;SDS011;65825;52.232;10.566;2024-01-07T07:32:28;5.65;;;2.08;;
76852;SDS011;65825;52.232;10.566;2024-01-07T07:34:54;4.27;;;2.23;;
76852;SDS011;65825;52.232;10.566;2024-01-07T07:37:19;4.33;;;2.13;;
76852;SDS011;65825;52.232;10.566;2024-01-07T07:39:44;5.17;;;2.27;;
76852;SDS011;65825;52.232;10.566;2024-01-07T07:42:09;3.53;;;2.17;;
76852;SDS011;65825;52.232;10.566;2024-01-07T07:44:35;3.13;;;1.98;;
76852;SDS011;65825;52.232;10.566;2024-01-07T07:47:01;3.50;;;2.00;;
76852;SDS011;65825;52.232;10.566;2024-01-07T07:49:26;5.23;;;2.23;;
76852;SDS011;65825;52.232;10.566;2024-01-07T07:51:51;5.13;;;2.13;;
76852;SDS011;65825;52.232;10.566;2024-01-07T07:54:16;5.33;;;2.97;;
76852;SDS011;65825;52.232;10.566;2024-01-07T07:56:42;3.97;;;2.15;;
76852;SDS011;65825;52.232;10.566;2024-01-07T07:59:07;5.40;;;2.23;;
76852;SDS011;65825;52.232;10.566;2024-01-07T08:01:33;6.13;;;2.85;;
76852;SDS011;65825;52.232;10.566;2024-01-07T08:03:59;6.30;;;2.88;;
76852;SDS011;65825;52.232;10.566;2024-01-07T08:06:24;5.43;;;1.93;;
76852;SDS011;65825;52.232;10.566;2024-01-07T08:08:49;4.30;;;2.73;;
76852;SDS011;65825;52.232;10.566;2024-01-07T08:11:15;6.47;;;2.47;;
76852;SDS011;65825;52.232;10.566;2024-01-07T08:13:40;4.50;;;2.53;;
76852;SDS011;65825;52.232;10.566;2024-01-07T08:16:06;4.05;;;2.20;;
76852;SDS011;65825;52.232;10.566;2024-01-07T08:18:31;6.93;;;2.33;;
76852;SDS011;65825;52.232;10.566;2024-01-07T08:20:57;4.50;;;2.40;;
76852;SDS011;65825;52.232;10.566;2024-01-07T08:23:26;6.47;;;2.45;;
76852;SDS011;65825;52.232;10.566;2024-01-07T08:25:51;5.50;;;2.70;;
76852;SDS011;65825;52.232;10.566;2024-01-07T08:28:17;6.53;;;2.60;;
76852;SDS011;65825;52.232;10.566;2024-01-07T08:30:42;6.38;;;2.42;;
76852;SDS011;65825;52.232;10.566;2024-01-07T08:33:09;4.95;;;2.90;;
76852;SDS011;65825;52.232;10.566;2024-01-07T08:35:34;5.03;;;2.60;;
76852;SDS011;65825;52.232;10.566;2024-01-07T08:37:59;4.73;;;3.17;;
76852;SDS011;65825;52.232;10.566;2024-01-07T08:40:25;6.17;;;2.87;;
76852;SDS011;65825;52.232;10.566;2024-01-07T08:42:50;5.13;;;2.67;;
76852;SDS011;65825;52.232;10.566;2024-01-07T08:45:15;6.47;;;2.90;;
76852;SDS011;65825;52.232;10.566;2024-01-07T08:47:41;5.47;;;2.77;;
76852;SDS011;65825;52.232;10.566;2024-01-07T08:50:06;5.90;;;2.42;;
76852;SDS011;65825;52.232;10.566;2024-01-07T08:52:32;6.90;;;2.58;;
76852;SDS011;65825;52.232;10.566;2024-01-07T08:55:00;3.85;;;2.55;;
76852;SDS011;65825;52.232;10.566;2024-01-07T08:57:25;7.22;;;3.20;;
76852;SDS011;65825;52.232;10.566;2024-01-07T08:59:50;3.70;;;2.10;;
76852;SDS011;65825;52.232;10.566;2024-01-07T09:02:16;8.70;;;2.60;;
76852;SDS011;65825;52.232;10.566;2024-01-07T09:04:41;6.15;;;2.42;;
76852;SDS011;65825;52.232;10.566;2024-01-07T09:07:06;5.67;;;2.57;;
76852;SDS011;65825;52.232;10.566;2024-01-07T09:09:32;4.40;;;2.50;;
76852;SDS011;65825;52.232;10.566;2024-01-07T09:11:58;4.35;;;2.55;;
76852;SDS011;65825;52.232;10.566;2024-01-07T09:14:25;5.18;;;2.92;;
76852;SDS011;65825;52.232;10.566;2024-01-07T09:16:50;4.77;;;2.30;;
76852;SDS011;65825;52.232;10.566;2024-01-07T09:19:15;6.50;;;3.20;;
76852;SDS011;65825;52.232;10.566;2024-01-07T09:21:41;5.70;;;2.80;;
76852;SDS011;65825;52.232;10.566;2024-01-07T09:24:06;6.23;;;2.67;;
76852;SDS011;65825;52.232;10.566;2024-01-07T09:26:31;7.77;;;2.73;;
76852;SDS011;65825;52.232;10.566;2024-01-07T09:28:56;5.93;;;2.53;;
76852;SDS011;65825;52.232;10.566;2024-01-07T09:31:22;5.47;;;3.13;;
76852;SDS011;65825;52.232;10.566;2024-01-07T09:33:47;4.90;;;2.85;;
76852;SDS011;65825;52.232;10.566;2024-01-07T09:36:12;5.03;;;2.30;;
76852;SDS011;65825;52.232;10.566;2024-01-07T09:38:38;6.60;;;2.70;;
76852;SDS011;65825;52.232;10.566;2024-01-07T09:41:03;4.45;;;2.13;;
76852;SDS011;65825;52.232;10.566;2024-01-07T09:43:29;5.97;;;2.65;;
76852;SDS011;65825;52.232;10.566;2024-01-07T09:45:54;4.57;;;2.30;;
76852;SDS011;65825;52.232;10.566;2024-01-07T09:48:22;6.13;;;2.70;;
76852;SDS011;65825;52.232;10.566;2024-01-07T09:50:47;6.23;;;2.60;;
76852;SDS011;65825;52.232;10.566;2024-01-07T09:53:17;5.25;;;2.65;;
76852;SDS011;65825;52.232;10.566;2024-01-07T09:58:13;4.72;;;2.10;;
76852;SDS011;65825;52.232;10.566;2024-01-07T10:00:38;5.93;;;2.33;;
76852;SDS011;65825;52.232;10.566;2024-01-07T10:03:06;3.38;;;2.25;;
76852;SDS011;65825;52.232;10.566;2024-01-07T10:05:31;5.63;;;2.20;;
76852;SDS011;65825;52.232;10.566;2024-01-07T10:07:56;3.90;;;2.03;;
76852;SDS011;65825;52.232;10.566;2024-01-07T10:10:22;4.47;;;2.00;;
76852;SDS011;65825;52.232;10.566;2024-01-07T10:12:48;5.17;;;2.60;;
76852;SDS011;65825;52.232;10.566;2024-01-07T10:15:13;4.77;;;2.53;;
76852;SDS011;65825;52.232;10.566;2024-01-07T10:17:41;3.55;;;2.35;;
76852;SDS011;65825;52.232;10.566;2024-01-07T10:20:07;3.97;;;2.30;;
76852;SDS011;65825;52.232;10.566;2024-01-07T10:22:35;3.47;;;2.53;;
76852;SDS011;65825;52.232;10.566;2024-01-07T10:25:01;3.90;;;1.90;;
76852;SDS011;65825;52.232;10.566;2024-01-07T10:27:27;3.23;;;1.97;;
76852;SDS011;65825;52.232;10.566;2024-01-07T10:29:52;4.03;;;2.33;;
76852;SDS011;65825;52.232;10.566;2024-01-07T10:42:03;3.50;;;1.60;;
76852;SDS011;65825;52.232;10.566;2024-01-07T10:44:30;3.25;;;1.42;;
76852;SDS011;65825;52.232;10.566;2024-01-07T10:46:56;3.60;;;2.05;;
76852;SDS011;65825;52.232;10.566;2024-01-07T10:49:26;4.43;;;2.10;;
76852;SDS011;65825;52.232;10.566;2024-01-07T10:52:03;4.63;;;1.88;;
76852;SDS011;65825;52.232;10.566;2024-01-07T10:54:30;3.22;;;1.65;;
76852;SDS011;65825;52.232;10.566;2024-01-07T10:56:58;3.40;;;2.15;;
76852;SDS011;65825;52.232;10.566;2024-01-07T10:59:28;4.03;;;1.73;;
76852;SDS011;65825;52.232;10.566;2024-01-07T11:01:55;4.38;;;1.70;;
76852;SDS011;65825;52.232;10.566;2024-01-07T11:04:22;3.08;;;1.55;;
76852;SDS011;65825;52.232;10.566;2024-01-07T11:09:54;4.38;;;1.88;;
76852;SDS011;65825;52.232;10.566;2024-01-07T11:12:29;3.55;;;1.50;;
76852;SDS011;65825;52.232;10.566;2024-01-07T11:14:56;2.60;;;1.67;;
76852;SDS011;65825;52.232;10.566;2024-01-07T11:20:01;2.55;;;1.45;;
76852;SDS011;65825;52.232;10.566;2024-01-07T11:22:27;3.10;;;1.75;;
76852;SDS011;65825;52.232;10.566;2024-01-07T11:24:56;3.03;;;1.50;;
76852;SDS011;65825;52.232;10.566;2024-01-07T11:27:22;2.95;;;1.67;;
76852;SDS011;65825;52.232;10.566;2024-01-07T11:29:55;3.85;;;1.48;;
76852;SDS011;65825;52.232;10.566;2024-01-07T11:32:22;3.55;;;1.63;;
76852;SDS011;65825;52.232;10.566;2024-01-07T11:34:49;2.47;;;1.80;;
76852;SDS011;65825;52.232;10.566;2024-01-07T11:37:17;2.97;;;2.00;;
76852;SDS011;65825;52.232;10.566;2024-01-07T11:39:43;4.33;;;2.10;;
76852;SDS011;65825;52.232;10.566;2024-01-07T11:42:09;2.78;;;1.80;;
76852;SDS011;65825;52.232;10.566;2024-01-07T11:44:35;6.22;;;1.83;;
76852;SDS011;65825;52.232;10.566;2024-01-07T11:47:02;3.63;;;1.58;;
76852;SDS011;65825;52.232;10.566;2024-01-07T11:49:29;5.18;;;1.92;;
76852;SDS011;65825;52.232;10.566;2024-01-07T11:51:54;4.87;;;1.60;;
76852;SDS011;65825;52.232;10.566;2024-01-07T11:54:20;3.93;;;1.87;;
76852;SDS011;65825;52.232;10.566;2024-01-07T11:56:45;2.20;;;1.33;;
76852;SDS011;65825;52.232;10.566;2024-01-07T11:59:10;2.37;;;1.80;;
76852;SDS011;65825;52.232;10.566;2024-01-07T12:01:35;5.27;;;2.30;;
76852;SDS011;65825;52.232;10.566;2024-01-07T12:04:01;4.23;;;2.23;;
76852;SDS011;65825;52.232;10.566;2024-01-07T12:06:26;2.87;;;1.80;;
76852;SDS011;65825;52.232;10.566;2024-01-07T12:08:51;3.13;;;2.10;;
76852;SDS011;65825;52.232;10.566;2024-01-07T12:11:17;4.63;;;1.92;;
76852;SDS011;65825;52.232;10.566;2024-01-07T12:13:43;4.32;;;2.20;;
76852;SDS011;65825;52.232;10.566;2024-01-07T12:16:09;4.13;;;2.13;;
76852;SDS011;65825;52.232;10.566;2024-01-07T12:18:39;2.42;;;1.40;;
76852;SDS011;65825;52.232;10.566;2024-01-07T12:21:04;4.05;;;1.73;;
76852;SDS011;65825;52.232;10.566;2024-01-07T12:23:33;4.70;;;1.90;;
76852;SDS011;65825;52.232;10.566;2024-01-07T12:26:06;5.18;;;1.70;;
76852;SDS011;65825;52.232;10.566;2024-01-07T12:28:36;3.78;;;1.70;;
76852;SDS011;65825;52.232;10.566;2024-01-07T12:31:02;3.65;;;2.00;;
76852;SDS011;65825;52.232;10.566;2024-01-07T12:33:28;3.88;;;1.48;;
76852;SDS011;65825;52.232;10.566;2024-01-07T12:35:55;3.75;;;1.90;;
76852;SDS011;65825;52.232;10.566;2024-01-07T12:38:26;4.03;;;1.53;;
76852;SDS011;65825;52.232;10.566;2024-01-07T12:40:55;4.25;;;2.05;;
76852;SDS011;65825;52.232;10.566;2024-01-07T12:43:21;2.20;;;1.70;;
76852;SDS011;65825;52.232;10.566;2024-01-07T12:45:47;5.13;;;2.10;;
76852;SDS011;65825;52.232;10.566;2024-01-07T12:48:13;6.65;;;2.20;;
76852;SDS011;65825;52.232;10.566;2024-01-07T12:50:38;3.23;;;1.83;;
76852;SDS011;65825;52.232;10.566;2024-01-07T12:53:03;4.17;;;1.70;;
76852;SDS011;65825;52.232;10.566;2024-01-07T12:55:30;6.75;;;2.08;;
76852;SDS011;65825;52.232;10.566;2024-01-07T12:57:56;2.47;;;1.75;;
76852;SDS011;65825;52.232;10.566;2024-01-07T13:00:22;2.55;;;1.58;;
76852;SDS011;65825;52.232;10.566;2024-01-07T13:02:47;4.95;;;2.00;;
76852;SDS011;65825;52.232;10.566;2024-01-07T13:05:13;3.65;;;1.52;;
76852;SDS011;65825;52.232;10.566;2024-01-07T13:07:39;2.90;;;1.80;;
76852;SDS011;65825;52.232;10.566;2024-01-07T13:10:04;3.40;;;1.80;;
76852;SDS011;65825;52.232;10.566;2024-01-07T13:12:31;3.53;;;2.00;;
76852;SDS011;65825;52.232;10.566;2024-01-07T13:14:56;4.00;;;2.20;;
76852;SDS011;65825;52.232;10.566;2024-01-07T13:17:21;4.60;;;2.13;;
76852;SDS011;65825;52.232;10.566;2024-01-07T13:19:47;6.13;;;2.13;;
76852;SDS011;65825;52.232;10.566;2024-01-07T13:22:12;5.13;;;2.40;;
76852;SDS011;65825;52.232;10.566;2024-01-07T13:24:38;5.63;;;2.70;;
76852;SDS011;65825;52.232;10.566;2024-01-07T13:27:03;5.20;;;1.93;;
76852;SDS011;65825;52.232;10.566;2024-01-07T13:29:29;7.22;;;2.45;;
76852;SDS011;65825;52.232;10.566;2024-01-07T13:31:54;5.20;;;2.50;;
76852;SDS011;65825;52.232;10.566;2024-01-07T13:34:20;5.47;;;2.50;;
76852;SDS011;65825;52.232;10.566;2024-01-07T13:36:45;6.20;;;2.13;;
76852;SDS011;65825;52.232;10.566;2024-01-07T13:39:11;4.15;;;2.47;;
76852;SDS011;65825;52.232;10.566;2024-01-07T13:41:36;7.77;;;3.90;;
76852;SDS011;65825;52.232;10.566;2024-01-07T13:44:02;8.53;;;4.07;;
76852;SDS011;65825;52.232;10.566;2024-01-07T13:46:32;7.78;;;3.63;;
76852;SDS011;65825;52.232;10.566;2024-01-07T13:48:57;6.82;;;2.97;;
76852;SDS011;65825;52.232;10.566;2024-01-07T13:51:22;5.57;;;2.93;;
76852;SDS011;65825;52.232;10.566;2024-01-07T13:53:48;6.90;;;2.73;;
76852;SDS011;65825;52.232;10.566;2024-01-07T13:56:13;5.53;;;2.47;;
76852;SDS011;65825;52.232;10.566;2024-01-07T13:58:38;5.30;;;2.63;;
76852;SDS011;65825;52.232;10.566;2024-01-07T14:01:04;4.28;;;2.60;;
76852;SDS011;65825;52.232;10.566;2024-01-07T14:03:30;8.88;;;2.75;;
76852;SDS011;65825;52.232;10.566;2024-01-07T14:05:57;6.93;;;2.63;;
76852;SDS011;65825;52.232;10.566;2024-01-07T14:08:23;3.80;;;2.42;;
76852;SDS011;65825;52.232;10.566;2024-01-07T14:10:48;4.90;;;2.47;;
76852;SDS011;65825;52.232;10.566;2024-01-07T14:13:13;5.10;;;2.50;;
76852;SDS011;65825;52.232;10.566;2024-01-07T14:15:39;3.90;;;2.30;;
76852;SDS011;65825;52.232;10.566;2024-01-07T14:18:04;4.65;;;2.63;;
76852;SDS011;65825;52.232;10.566;2024-01-07T14:20:29;8.03;;;2.13;;
76852;SDS011;65825;52.232;10.566;2024-01-07T14:22:55;4.27;;;2.00;;
76852;SDS011;65825;52.232;10.566;2024-01-07T14:25:20;5.50;;;2.23;;
76852;SDS011;65825;52.232;10.566;2024-01-07T14:27:45;4.70;;;2.33;;
76852;SDS011;65825;52.232;10.566;2024-01-07T14:30:11;5.78;;;3.80;;
76852;SDS011;65825;52.232;10.566;2024-01-07T14:32:38;9.63;;;4.07;;
76852;SDS011;65825;52.232;10.566;2024-01-07T14:35:03;7.25;;;3.28;;
76852;SDS011;65825;52.232;10.566;2024-01-07T14:37:29;4.30;;;2.70;;
76852;SDS011;65825;52.232;10.566;2024-01-07T14:39:54;4.27;;;3.37;;
76852;SDS011;65825;52.232;10.566;2024-01-07T14:42:19;4.15;;;2.67;;